createdAt,value
2023-05-01T00:02:21.187Z,22.42
2023-05-01T00:04:48.543Z,22.34
2023-05-01T00:07:17.707Z,22.37
2023-05-01T00:09:47.666Z,22.37
2023-05-01T00:12:15.000Z,22.42
2023-05-01T00:14:42.189Z,22.43
2023-05-01T00:17:09.435Z,22.39
2023-05-01T00:19:36.508Z,22.39
2023-05-01T00:22:04.029Z,22.40
2023-05-01T00:24:31.075Z,22.30
2023-05-01T00:26:58.309Z,22.27
2023-05-01T00:29:25.799Z,22.33
2023-05-01T00:31:53.474Z,22.28
2023-05-01T00:34:20.682Z,22.24
2023-05-01T00:36:49.313Z,22.28
2023-05-01T00:39:17.043Z,22.24
2023-05-01T00:41:44.091Z,22.25
2023-05-01T00:44:11.251Z,22.33
2023-05-01T00:46:38.406Z,22.14
2023-05-01T00:49:05.722Z,22.07
2023-05-01T00:51:33.920Z,22.12
2023-05-01T00:54:01.821Z,21.98
2023-05-01T00:56:30.983Z,22.05
2023-05-01T01:02:06.857Z,22.11
2023-05-01T01:04:38.208Z,22.02
2023-05-01T01:07:22.075Z,22.01
2023-05-01T01:10:20.490Z,21.95
2023-05-01T01:13:08.877Z,21.91
2023-05-01T01:15:46.056Z,22.01
2023-05-01T01:18:28.896Z,21.79
2023-05-01T01:21:16.219Z,21.88
2023-05-01T01:23:53.371Z,22.08
2023-05-01T01:26:45.347Z,21.94
2023-05-01T01:29:24.993Z,21.90
2023-05-01T01:31:58.437Z,21.88
2023-05-01T01:34:50.746Z,21.90
2023-05-01T01:37:22.852Z,21.71
2023-05-01T01:40:01.679Z,21.63
2023-05-01T01:42:57.492Z,21.75
2023-05-01T01:45:41.420Z,21.87
2023-05-01T01:48:16.541Z,21.86
2023-05-01T01:50:48.341Z,21.63
2023-05-01T01:53:18.791Z,21.78
2023-05-01T01:55:50.655Z,21.97
2023-05-01T01:58:21.321Z,21.80
2023-05-01T02:00:50.204Z,21.96
2023-05-01T02:03:19.082Z,21.84
2023-05-01T02:05:49.763Z,21.63
2023-05-01T02:08:18.447Z,21.69
2023-05-01T02:10:47.444Z,21.88
2023-05-01T02:13:17.569Z,21.90
2023-05-01T02:15:46.140Z,21.91
2023-05-01T02:18:14.995Z,22.08
2023-05-01T02:20:44.650Z,22.11
2023-05-01T02:23:13.081Z,21.96
2023-05-01T02:25:40.751Z,21.88
2023-05-01T02:28:13.975Z,21.91
2023-05-01T02:30:41.434Z,22.12
2023-05-01T02:33:09.230Z,21.83
2023-05-01T02:35:44.489Z,21.80
2023-05-01T02:38:13.185Z,21.92
2023-05-01T02:40:41.218Z,21.85
2023-05-01T02:43:12.906Z,21.74
2023-05-01T02:45:41.744Z,21.80
2023-05-01T02:48:12.981Z,21.73
2023-05-01T02:50:46.338Z,21.81
2023-05-01T02:53:15.855Z,21.68
2023-05-01T02:55:50.131Z,21.70
2023-05-01T02:58:18.708Z,21.73
2023-05-01T03:00:48.755Z,21.49
2023-05-01T03:03:16.950Z,21.73
2023-05-01T03:05:45.467Z,21.73
2023-05-01T03:08:12.920Z,21.80
2023-05-01T03:10:45.376Z,21.77
2023-05-01T03:13:22.612Z,21.80
2023-05-01T03:15:49.860Z,21.70
2023-05-01T03:18:16.997Z,21.74
2023-05-01T03:21:04.443Z,21.74
2023-05-01T03:23:32.057Z,21.92
2023-05-01T03:26:01.066Z,21.82
2023-05-01T03:28:28.624Z,21.99
2023-05-01T03:30:58.867Z,21.82
2023-05-01T03:33:28.855Z,21.85
2023-05-01T03:36:05.844Z,21.81
2023-05-01T03:38:35.495Z,21.95
2023-05-01T03:41:22.910Z,21.90
2023-05-01T03:44:08.915Z,21.80
2023-05-01T03:46:40.484Z,22.01
2023-05-01T03:49:11.027Z,22.18
2023-05-01T03:51:45.364Z,22.17
2023-05-01T03:54:12.564Z,22.27
2023-05-01T03:57:01.889Z,22.25
2023-05-01T03:59:29.782Z,21.93
2023-05-01T04:01:57.062Z,22.05
2023-05-01T04:04:26.863Z,22.14
2023-05-01T04:06:57.334Z,22.13
2023-05-01T04:09:25.055Z,22.11
2023-05-01T04:11:53.935Z,22.01
2023-05-01T04:14:25.342Z,22.14
2023-05-01T04:16:52.873Z,22.15
2023-05-01T04:19:30.320Z,22.19
2023-05-01T04:21:59.093Z,22.19
2023-05-01T04:24:27.006Z,22.15
2023-05-01T04:26:54.264Z,22.08
2023-05-01T04:29:21.755Z,22.05
2023-05-01T04:31:52.430Z,22.13
2023-05-01T04:34:20.523Z,22.05
2023-05-01T04:36:49.615Z,21.99
2023-05-01T04:39:16.851Z,22.01
2023-05-01T04:41:44.044Z,21.94
2023-05-01T04:44:17.369Z,22.00
2023-05-01T04:46:45.615Z,22.05
2023-05-01T04:49:12.884Z,22.07
2023-05-01T04:51:40.149Z,22.12
2023-05-01T04:54:11.282Z,22.10
2023-05-01T04:56:39.976Z,22.15
2023-05-01T04:59:07.027Z,22.09
2023-05-01T05:01:34.986Z,22.03
2023-05-01T05:04:02.313Z,22.09
2023-05-01T05:06:30.184Z,22.04
2023-05-01T05:08:58.010Z,22.09
2023-05-01T05:11:25.262Z,22.03
2023-05-01T05:13:52.552Z,22.16
2023-05-01T05:16:20.253Z,22.05
2023-05-01T05:18:47.720Z,22.14
2023-05-01T05:21:14.928Z,22.05
2023-05-01T05:23:48.575Z,22.04
2023-05-01T05:26:15.821Z,21.66
2023-05-01T05:28:43.144Z,21.79
2023-05-01T05:31:10.531Z,21.90
2023-05-01T05:33:37.933Z,21.94
2023-05-01T05:36:06.731Z,21.86
2023-05-01T05:38:42.821Z,21.84
2023-05-01T05:41:14.235Z,21.93
2023-05-01T05:43:42.482Z,21.82
2023-05-01T05:46:10.344Z,22.05
2023-05-01T05:48:38.857Z,21.91
2023-05-01T05:51:06.264Z,21.95
2023-05-01T05:53:33.544Z,21.87
2023-05-01T05:56:01.566Z,22.12
2023-05-01T05:58:31.317Z,22.11
2023-05-01T06:00:58.637Z,22.08
2023-05-01T06:03:27.703Z,22.06
2023-05-01T06:06:01.173Z,21.80
2023-05-01T06:08:29.009Z,21.98
2023-05-01T06:10:56.735Z,22.07
2023-05-01T06:13:23.964Z,22.14
2023-05-01T06:15:51.061Z,22.22
2023-05-01T06:18:18.323Z,22.21
2023-05-01T06:20:45.941Z,22.35
2023-05-01T06:23:16.642Z,22.27
2023-05-01T06:25:56.337Z,22.13
2023-05-01T06:28:23.536Z,22.36
2023-05-01T06:30:51.080Z,22.25
2023-05-01T06:33:20.103Z,22.27
2023-05-01T06:36:01.735Z,22.13
2023-05-01T06:38:29.231Z,22.04
2023-05-01T06:40:56.899Z,22.29
2023-05-01T06:43:28.573Z,22.19
2023-05-01T06:45:56.671Z,22.04
2023-05-01T06:48:24.042Z,22.24
2023-05-01T06:50:51.339Z,22.14
2023-05-01T06:53:18.554Z,22.19
2023-05-01T06:55:45.996Z,22.09
2023-05-01T06:58:23.352Z,22.21
2023-05-01T07:00:54.023Z,22.34
2023-05-01T07:03:21.549Z,22.06
2023-05-01T07:05:48.807Z,22.22
2023-05-01T07:08:15.930Z,22.30
2023-05-01T07:10:43.116Z,22.37
2023-05-01T07:13:10.199Z,22.32
2023-05-01T07:15:38.103Z,22.46
2023-05-01T07:18:08.795Z,22.41
2023-05-01T07:20:36.034Z,22.51
2023-05-01T07:23:05.928Z,22.56
2023-05-01T07:25:44.545Z,22.61
2023-05-01T07:28:11.881Z,22.67
2023-05-01T07:30:39.119Z,22.79
2023-05-01T07:33:06.408Z,22.78
2023-05-01T07:35:36.218Z,22.80
2023-05-01T07:38:06.440Z,22.78
2023-05-01T07:40:35.099Z,22.89
2023-05-01T07:43:02.583Z,22.71
2023-05-01T07:45:29.921Z,22.85
2023-05-01T07:47:57.322Z,23.09
2023-05-01T07:50:26.192Z,22.91
2023-05-01T07:52:53.985Z,22.85
2023-05-01T07:55:25.690Z,22.89
2023-05-01T07:57:52.886Z,23.04
2023-05-01T08:00:22.609Z,23.00
2023-05-01T08:02:51.709Z,22.84
2023-05-01T08:05:19.220Z,23.25
2023-05-01T08:07:46.280Z,23.14
2023-05-01T08:10:13.838Z,23.29
2023-05-01T08:12:41.205Z,23.27
2023-05-01T08:15:08.685Z,23.40
2023-05-01T08:17:39.753Z,23.27
2023-05-01T08:20:07.646Z,23.37
2023-05-01T08:22:34.757Z,23.65
2023-05-01T08:25:01.868Z,23.90
2023-05-01T08:27:29.072Z,24.14
2023-05-01T08:29:56.646Z,24.36
2023-05-01T08:32:24.067Z,24.38
2023-05-01T08:34:52.893Z,24.02
2023-05-01T08:37:20.144Z,24.37
2023-05-01T08:39:49.849Z,24.41
2023-05-01T08:42:20.814Z,24.27
2023-05-01T08:44:49.520Z,24.42
2023-05-01T08:47:18.153Z,24.70
2023-05-01T08:49:51.386Z,24.85
2023-05-01T08:52:20.933Z,24.87
2023-05-01T08:54:50.907Z,24.70
2023-05-01T08:57:18.731Z,24.74
2023-05-01T08:59:49.457Z,24.82
2023-05-01T09:02:19.865Z,24.81
2023-05-01T09:04:49.940Z,24.41
2023-05-01T09:07:20.059Z,24.71
2023-05-01T09:09:50.636Z,24.91
2023-05-01T09:12:37.113Z,24.98
2023-05-01T09:15:14.369Z,24.87
2023-05-01T09:17:50.509Z,24.76
2023-05-01T09:20:24.634Z,24.82
2023-05-01T09:22:52.121Z,24.83
2023-05-01T09:25:21.403Z,25.29
2023-05-01T09:27:51.191Z,25.57
2023-05-01T09:30:37.226Z,25.57
2023-05-01T09:33:17.218Z,25.53
2023-05-01T09:35:58.810Z,25.59
2023-05-01T09:38:28.120Z,25.45
2023-05-01T09:40:57.457Z,25.87
2023-05-01T09:43:29.610Z,26.05
2023-05-01T09:46:13.591Z,26.22
2023-05-01T09:48:41.017Z,26.13
2023-05-01T09:51:22.254Z,26.09
2023-05-01T09:53:57.234Z,25.09
2023-05-01T09:56:27.736Z,25.57
2023-05-01T09:59:01.806Z,25.80
2023-05-01T10:01:51.598Z,25.69
2023-05-01T10:04:31.160Z,25.95
2023-05-01T10:06:59.268Z,26.14
2023-05-01T10:09:30.353Z,26.19
2023-05-01T10:11:59.391Z,26.06
2023-05-01T10:14:28.503Z,26.28
2023-05-01T10:16:58.571Z,24.89
2023-05-01T10:19:29.117Z,25.80
2023-05-01T10:21:59.496Z,25.67
2023-05-01T10:24:31.155Z,25.52
2023-05-01T10:26:58.871Z,26.32
2023-05-01T10:29:30.278Z,26.35
2023-05-01T10:31:58.678Z,26.18
2023-05-01T10:34:28.563Z,25.63
2023-05-01T10:37:07.285Z,25.50
2023-05-01T10:39:37.715Z,25.86
2023-05-01T10:42:14.851Z,25.78
2023-05-01T10:44:43.027Z,25.39
2023-05-01T10:47:30.612Z,25.23
2023-05-01T10:50:18.442Z,25.08
2023-05-01T10:53:37.674Z,24.94
2023-05-01T10:56:06.638Z,25.02
2023-05-01T10:58:39.720Z,25.29
2023-05-01T11:01:43.291Z,25.94
2023-05-01T11:04:19.724Z,26.14
2023-05-01T11:07:02.100Z,26.07
2023-05-01T11:09:56.005Z,26.27
2023-05-01T11:12:44.698Z,26.93
2023-05-01T11:15:32.503Z,27.16
2023-05-01T11:18:06.674Z,26.81
2023-05-01T11:20:40.256Z,26.98
2023-05-01T11:23:07.879Z,27.10
2023-05-01T11:25:37.210Z,26.93
2023-05-01T11:28:06.874Z,26.49
2023-05-01T11:30:39.025Z,26.40
2023-05-01T11:33:10.122Z,26.73
2023-05-01T11:35:39.661Z,26.97
2023-05-01T11:38:52.912Z,26.63
2023-05-01T11:41:37.987Z,26.32
2023-05-01T11:44:18.543Z,26.49
2023-05-01T11:47:01.525Z,26.38
2023-05-01T11:49:33.125Z,26.28
2023-05-01T11:52:41.455Z,26.09
2023-05-01T11:55:32.157Z,25.65
2023-05-01T11:58:10.770Z,25.88
2023-05-01T12:00:50.848Z,25.34
2023-05-01T12:03:23.613Z,25.15
2023-05-01T12:05:57.575Z,25.17
2023-05-01T12:08:35.630Z,24.74
2023-05-01T12:11:08.771Z,25.10
2023-05-01T12:13:48.191Z,24.41
2023-05-01T12:16:15.798Z,24.76
2023-05-01T12:18:53.021Z,24.64
2023-05-01T12:21:26.982Z,24.74
2023-05-01T12:24:22.732Z,24.31
2023-05-01T12:30:01.361Z,24.16
2023-05-01T12:32:33.981Z,24.38
2023-05-01T12:35:16.953Z,24.36
2023-05-01T12:37:56.577Z,24.68
2023-05-01T12:40:32.689Z,24.86
2023-05-01T12:43:02.124Z,25.36
2023-05-01T12:45:44.645Z,25.24
2023-05-01T12:48:23.705Z,25.03
2023-05-01T12:51:01.856Z,25.01
2023-05-01T12:53:45.801Z,25.28
2023-05-01T12:56:25.138Z,24.89
2023-05-01T12:59:00.306Z,24.84
2023-05-01T13:01:50.528Z,24.93
2023-05-01T13:04:22.890Z,24.71
2023-05-01T13:07:01.430Z,24.66
2023-05-01T13:09:40.942Z,24.21
2023-05-01T13:12:28.414Z,24.37
2023-05-01T13:15:04.891Z,24.26
2023-05-01T13:17:41.398Z,24.44
2023-05-01T13:20:25.482Z,23.93
2023-05-01T13:23:03.077Z,23.90
2023-05-01T13:25:33.571Z,24.05
2023-05-01T13:28:20.803Z,24.23
2023-05-01T13:34:19.608Z,24.24
2023-05-01T13:36:53.307Z,23.94
2023-05-01T13:39:26.974Z,24.12
2023-05-01T13:42:06.327Z,23.83
2023-05-01T13:44:45.679Z,23.96
2023-05-01T13:47:26.036Z,23.94
2023-05-01T13:50:00.492Z,23.89
2023-05-01T13:52:32.846Z,24.18
2023-05-01T13:55:07.183Z,23.88
2023-05-01T13:57:48.998Z,24.11
2023-05-01T14:00:22.922Z,24.09
2023-05-01T14:02:57.723Z,24.32
2023-05-01T14:05:41.202Z,24.14
2023-05-01T14:08:12.231Z,24.44
2023-05-01T14:10:42.451Z,24.49
2023-05-01T14:13:55.243Z,24.81
2023-05-01T14:16:57.642Z,25.04
2023-05-01T14:19:27.496Z,25.22
2023-05-01T14:22:03.819Z,24.95
2023-05-01T14:24:41.417Z,25.56
2023-05-01T14:27:17.045Z,24.92
2023-05-01T14:29:51.629Z,24.79
2023-05-01T14:32:19.177Z,25.24
2023-05-01T14:34:51.799Z,24.89
2023-05-01T14:37:28.243Z,25.15
2023-05-01T14:40:07.964Z,25.42
2023-05-01T14:43:10.205Z,25.13
2023-05-01T14:45:56.074Z,24.89
2023-05-01T14:48:35.240Z,24.50
2023-05-01T14:51:34.130Z,24.33
2023-05-01T14:54:19.983Z,24.86
2023-05-01T14:56:50.416Z,24.62
2023-05-01T14:59:22.847Z,24.54
2023-05-01T15:02:00.921Z,24.75
2023-05-01T15:04:53.417Z,24.49
2023-05-01T15:07:36.538Z,24.95
2023-05-01T15:10:22.638Z,24.98
2023-05-01T15:13:12.152Z,24.85
2023-05-01T15:15:43.751Z,25.27
2023-05-01T15:18:14.442Z,25.03
2023-05-01T15:20:47.191Z,25.10
2023-05-01T15:23:29.913Z,24.33
2023-05-01T15:26:04.117Z,24.08
2023-05-01T15:28:35.407Z,24.59
2023-05-01T15:31:09.070Z,24.86
2023-05-01T15:33:51.238Z,25.12
2023-05-01T15:36:24.014Z,25.11
2023-05-01T15:38:58.968Z,25.01
2023-05-01T15:41:34.279Z,24.93
2023-05-01T15:44:15.201Z,24.96
2023-05-01T15:47:37.511Z,24.77
2023-05-01T15:50:13.139Z,24.64
2023-05-01T15:53:04.626Z,24.56
2023-05-01T15:55:51.777Z,24.38
2023-05-01T16:01:51.138Z,24.50
2023-05-01T16:04:31.300Z,24.68
2023-05-01T16:07:10.611Z,24.40
2023-05-01T16:09:43.223Z,24.82
2023-05-01T16:12:15.969Z,24.49
2023-05-01T16:14:50.760Z,24.72
2023-05-01T16:17:19.748Z,24.89
2023-05-01T16:19:50.120Z,24.42
2023-05-01T16:22:20.708Z,24.73
2023-05-01T16:24:50.253Z,24.50
2023-05-01T16:27:20.708Z,24.71
2023-05-01T16:29:54.305Z,24.71
2023-05-01T16:32:30.662Z,24.46
2023-05-01T16:35:23.036Z,24.48
2023-05-01T16:37:52.619Z,24.62
2023-05-01T16:40:22.480Z,24.37
2023-05-01T16:43:15.712Z,24.58
2023-05-01T16:45:57.915Z,24.36
2023-05-01T16:48:25.556Z,24.25
2023-05-01T16:51:14.022Z,24.10
2023-05-01T16:54:02.375Z,24.44
2023-05-01T16:56:53.556Z,24.22
2023-05-01T17:00:00.029Z,24.08
2023-05-01T17:02:59.117Z,23.97
2023-05-01T17:05:46.502Z,24.09
2023-05-01T17:12:34.110Z,23.74
2023-05-01T17:15:27.688Z,23.82
2023-05-01T17:18:03.445Z,23.86
2023-05-01T17:20:43.084Z,23.77
2023-05-01T17:23:18.393Z,23.70
2023-05-01T17:25:57.637Z,23.59
2023-05-01T17:28:32.443Z,23.54
2023-05-01T17:31:22.673Z,23.59
2023-05-01T17:34:02.187Z,23.28
2023-05-01T17:36:33.012Z,23.61
2023-05-01T17:39:05.770Z,23.48
2023-05-01T17:41:47.151Z,23.49
2023-05-01T17:44:25.433Z,23.10
2023-05-01T17:47:01.186Z,23.24
2023-05-01T17:52:57.819Z,23.00
2023-05-01T17:55:41.419Z,23.21
2023-05-01T17:58:17.852Z,23.02
2023-05-01T18:00:58.983Z,22.87
2023-05-01T18:03:42.939Z,22.59
2023-05-01T18:06:19.048Z,22.78
2023-05-01T18:08:58.287Z,23.05
2023-05-01T18:11:49.287Z,22.99
2023-05-01T18:14:40.190Z,23.06
2023-05-01T18:17:19.430Z,22.83
2023-05-01T18:19:59.243Z,22.93
2023-05-01T18:22:36.113Z,22.85
2023-05-01T18:25:14.659Z,22.74
2023-05-01T18:28:05.563Z,22.70
2023-05-01T18:30:58.716Z,22.75
2023-05-01T18:33:47.422Z,22.77
2023-05-01T18:36:23.523Z,22.64
2023-05-01T18:39:05.669Z,22.58
2023-05-01T18:42:06.258Z,22.50
2023-05-01T18:44:36.599Z,22.72
2023-05-01T18:47:34.959Z,22.37
2023-05-01T18:50:17.029Z,22.80
2023-05-01T18:52:45.016Z,22.52
2023-05-01T18:55:15.769Z,22.68
2023-05-01T18:57:44.060Z,22.71
2023-05-01T19:00:26.913Z,22.76
2023-05-01T19:02:54.600Z,22.66
2023-05-01T19:05:30.363Z,22.53
2023-05-01T19:08:14.013Z,22.68
2023-05-01T19:10:44.998Z,22.71
2023-05-01T19:13:15.190Z,22.75
2023-05-01T19:15:49.457Z,22.73
2023-05-01T19:18:16.964Z,22.79
2023-05-01T19:20:46.948Z,22.67
2023-05-01T19:23:28.769Z,22.75
2023-05-01T19:26:00.055Z,22.76
2023-05-01T19:28:32.489Z,22.61
2023-05-01T19:31:03.303Z,22.74
2023-05-01T19:33:30.547Z,22.69
2023-05-01T19:36:00.105Z,22.39
2023-05-01T19:38:36.830Z,22.41
2023-05-01T19:41:04.510Z,22.42
2023-05-01T19:43:55.401Z,22.60
2023-05-01T19:46:25.963Z,22.52
2023-05-01T19:49:02.640Z,22.57
2023-05-01T19:51:29.799Z,22.58
2023-05-01T19:53:57.173Z,22.43
2023-05-01T19:56:33.629Z,22.40
2023-05-01T19:59:01.849Z,22.53
2023-05-01T20:01:36.885Z,22.47
2023-05-01T20:04:04.890Z,22.44
2023-05-01T20:06:33.000Z,22.25
2023-05-01T20:09:20.822Z,22.33
2023-05-01T20:11:56.997Z,22.26
2023-05-01T20:14:34.153Z,22.20
2023-05-01T20:17:02.699Z,22.30
2023-05-01T20:19:42.046Z,22.27
2023-05-01T20:22:11.251Z,22.13
2023-05-01T20:24:39.151Z,22.00
2023-05-01T20:27:30.063Z,22.20
2023-05-01T20:30:03.728Z,22.27
2023-05-01T20:32:33.604Z,22.22
2023-05-01T20:35:07.402Z,22.32
2023-05-01T20:37:46.375Z,22.37
2023-05-01T20:40:19.112Z,22.38
2023-05-01T20:42:48.731Z,22.38
2023-05-01T20:45:16.580Z,22.38
2023-05-01T20:47:58.431Z,22.41
2023-05-01T20:50:48.474Z,22.46
2023-05-01T20:53:21.103Z,22.39
2023-05-01T20:55:56.742Z,22.42
2023-05-01T21:01:32.699Z,22.44
2023-05-01T21:04:01.535Z,22.52
2023-05-01T21:06:38.007Z,22.51
2023-05-01T21:09:15.377Z,22.47
2023-05-01T21:11:43.447Z,22.38
2023-05-01T21:14:19.945Z,22.41
2023-05-01T21:16:48.761Z,22.27
2023-05-01T21:19:18.017Z,22.18
2023-05-01T21:21:47.929Z,22.09
2023-05-01T21:27:13.045Z,22.12
2023-05-01T21:29:41.901Z,22.09
2023-05-01T21:32:14.337Z,22.13
2023-05-01T21:34:43.307Z,22.00
2023-05-01T21:37:18.746Z,22.10
2023-05-01T21:39:49.577Z,22.00
2023-05-01T21:42:17.854Z,22.07
2023-05-01T21:44:45.891Z,22.10
2023-05-01T21:47:17.439Z,22.12
2023-05-01T21:49:46.353Z,22.07
2023-05-01T21:52:15.037Z,22.11
2023-05-01T21:54:45.769Z,22.13
2023-05-01T21:57:17.834Z,22.20
2023-05-01T21:59:45.478Z,22.16
2023-05-01T22:02:15.201Z,22.15
2023-05-01T22:04:42.301Z,22.17
2023-05-01T22:07:17.096Z,22.16
2023-05-01T22:09:48.227Z,22.16
2023-05-01T22:12:16.723Z,22.09
2023-05-01T22:14:47.589Z,22.18
2023-05-01T22:17:25.139Z,22.19
2023-05-01T22:19:52.419Z,22.25
2023-05-01T22:22:20.663Z,22.12
2023-05-01T22:24:47.905Z,22.13
2023-05-01T22:27:16.286Z,22.07
2023-05-01T22:29:47.367Z,22.05
2023-05-01T22:32:14.919Z,22.00
2023-05-01T22:34:42.878Z,22.05
2023-05-01T22:37:10.565Z,22.08
2023-05-01T22:39:39.165Z,22.07
2023-05-01T22:42:06.477Z,21.84
2023-05-01T22:44:33.679Z,21.84
2023-05-01T22:47:00.984Z,21.82
2023-05-01T22:49:33.791Z,21.86
2023-05-01T22:52:02.450Z,21.75
2023-05-01T22:54:29.686Z,21.86
2023-05-01T22:57:04.051Z,21.80
2023-05-01T22:59:31.447Z,21.78
2023-05-01T23:01:58.619Z,21.75
2023-05-01T23:04:26.758Z,21.76
2023-05-01T23:06:53.842Z,21.82
2023-05-01T23:09:24.582Z,21.75
2023-05-01T23:11:52.231Z,21.77
2023-05-01T23:14:23.368Z,21.79
2023-05-01T23:16:54.858Z,21.65
2023-05-01T23:19:25.454Z,21.46
2023-05-01T23:22:08.736Z,21.60
2023-05-01T23:24:44.852Z,21.51
2023-05-01T23:27:23.128Z,21.60
2023-05-01T23:30:00.281Z,21.56
2023-05-01T23:32:30.229Z,21.49
2023-05-01T23:35:13.784Z,21.60
2023-05-01T23:37:41.059Z,21.45
2023-05-01T23:40:11.100Z,21.49
2023-05-01T23:42:39.920Z,21.30
2023-05-01T23:45:10.674Z,21.46
2023-05-01T23:47:40.964Z,21.28
2023-05-01T23:50:11.590Z,21.24
2023-05-01T23:52:38.858Z,21.37
2023-05-01T23:55:06.084Z,21.39
2023-05-01T23:57:33.221Z,21.41
